KLSV/LSV METAR and TAF weather

Enter ICAO airport designator
Station Type Date Time Source
KLSV METAR 2022/12/05 13:55 UTC NOAA

KLSV 051355Z AUTO 06007KT 10SM CLR 10/09 A2992 RMK AO2 SLP126 T01030091 $


Station Type Date Time Source
KLSV Decoded METAR 2022/12/05 13:55 UTC NOAA

Nellis Air Force Base, NV, United States (KLSV) 36-14N 115-02W
Dec 05, 2022 - 08:55 AM EST / 2022.12.05 1355 UTC
Wind: from the ENE (060 degrees) at 8 MPH (7 KT):0
Visibility: 10 mile(s):0
Sky conditions: clear
Temperature: 50.5 F (10.3 C)
Dew Point: 48.4 F (9.1 C)
Relative Humidity: 92%
Pressure (altimeter): 29.92 in. Hg (1013 hPa)
ob: KLSV 051355Z AUTO 06007KT 10SM CLR 10/09 A2992 RMK AO2 SLP126 T01030091
cycle: 14

Station Type Date Time Source
KLSV TAF 2022/12/05 07:51 UTC NOAA

TAF TAF KLSV 050700Z 0507/0613 17010G15KT 9999 SCT140 QNH2997INS
BECMG 0512/0513 03009KT 9999 SCT140 BKN200 510009 QNH2995INS
BECMG 0522/0523 09012G18KT 9999 BKN200 QNH2986INS
BECMG 0608/0609 04009KT 9999 FEW250 QNH2991INS TX18/0522Z TN08/0515Z

Example: see airport list